createdAt,value
2019-05-03T00:01:08.902Z,1.37
2019-05-03T00:03:38.363Z,1.70
2019-05-03T00:06:07.717Z,1.60
2019-05-03T00:08:38.071Z,1.70
2019-05-03T00:11:07.450Z,2.25
2019-05-03T00:13:37.079Z,1.35
2019-05-03T00:16:21.825Z,1.30
2019-05-03T00:18:52.704Z,1.40
2019-05-03T00:21:22.177Z,2.67
2019-05-03T00:23:52.304Z,1.75
2019-05-03T00:26:22.570Z,1.30
2019-05-03T00:28:52.154Z,2.17
2019-05-03T00:31:22.606Z,1.90
2019-05-03T00:33:53.710Z,1.30
2019-05-03T00:36:27.540Z,1.25
2019-05-03T00:38:58.451Z,1.35
2019-05-03T00:41:27.801Z,2.12
2019-05-03T00:43:57.070Z,1.30
2019-05-03T00:46:26.322Z,1.55
2019-05-03T00:48:55.565Z,1.20
2019-05-03T00:51:24.904Z,1.22
2019-05-03T00:53:54.224Z,1.32
2019-05-03T00:56:23.457Z,1.30
2019-05-03T00:58:54.485Z,1.35
2019-05-03T01:01:23.789Z,1.80
2019-05-03T01:03:53.067Z,1.65
2019-05-03T01:06:22.471Z,1.37
2019-05-03T01:08:52.368Z,1.27
2019-05-03T01:11:22.275Z,1.70
2019-05-03T01:13:53.035Z,4.42
2019-05-03T01:16:24.182Z,2.17
2019-05-03T01:18:53.723Z,2.37
2019-05-03T01:21:23.093Z,2.33
2019-05-03T01:23:52.760Z,1.75
2019-05-03T01:26:22.774Z,2.95
2019-05-03T01:28:52.386Z,1.72
2019-05-03T01:31:22.866Z,2.17
2019-05-03T01:33:52.406Z,3.87
2019-05-03T01:36:22.839Z,2.00
2019-05-03T01:38:52.864Z,2.33
2019-05-03T01:41:23.750Z,3.35
2019-05-03T01:43:53.001Z,2.22
2019-05-03T01:46:22.768Z,2.58
2019-05-03T01:49:03.139Z,1.87
2019-05-03T01:51:34.045Z,2.52
2019-05-03T01:54:03.735Z,2.10
2019-05-03T01:56:32.994Z,3.47
2019-05-03T01:59:02.290Z,2.62
2019-05-03T02:01:36.231Z,2.83
2019-05-03T02:04:12.937Z,2.00
2019-05-03T02:06:42.559Z,2.60
2019-05-03T02:09:12.276Z,2.40
2019-05-03T02:11:42.254Z,2.40
2019-05-03T02:14:12.420Z,2.08
2019-05-03T02:16:42.078Z,2.65
2019-05-03T02:19:12.641Z,3.05
2019-05-03T02:21:42.105Z,2.37
2019-05-03T02:24:11.921Z,2.10
2019-05-03T02:26:42.494Z,2.40
2019-05-03T02:29:12.614Z,2.87
2019-05-03T02:31:43.630Z,4.33
2019-05-03T02:34:13.134Z,2.58
2019-05-03T02:36:42.976Z,2.87
2019-05-03T02:39:14.146Z,2.25
2019-05-03T02:41:47.848Z,3.30
2019-05-03T02:44:16.512Z,3.75
2019-05-03T02:46:59.648Z,4.42
2019-05-03T02:49:35.294Z,3.10
2019-05-03T02:52:06.659Z,2.70
2019-05-03T02:54:35.327Z,2.98
2019-05-03T02:57:06.305Z,4.42
2019-05-03T02:59:35.818Z,3.17
2019-05-03T03:02:06.274Z,3.60
2019-05-03T03:04:35.903Z,4.00
2019-05-03T03:07:05.848Z,4.28
2019-05-03T03:09:36.058Z,3.40
2019-05-03T03:12:06.067Z,6.25
2019-05-03T03:14:36.371Z,3.22
2019-05-03T03:17:06.669Z,6.12
2019-05-03T03:19:36.293Z,4.97
2019-05-03T03:22:07.469Z,7.87
2019-05-03T03:24:37.190Z,4.50
2019-05-03T03:27:06.742Z,5.33
2019-05-03T03:29:37.187Z,5.15
2019-05-03T03:32:11.326Z,3.75
2019-05-03T03:35:42.809Z,5.15
2019-05-03T03:38:15.490Z,4.75
2019-05-03T03:40:45.349Z,6.25
2019-05-03T03:43:15.731Z,7.30
2019-05-03T03:45:45.620Z,5.97
2019-05-03T03:48:15.909Z,6.62
2019-05-03T03:50:45.702Z,6.45
2019-05-03T03:53:17.098Z,5.90
2019-05-03T03:55:47.605Z,7.37
2019-05-03T03:58:22.371Z,7.75
2019-05-03T04:00:48.643Z,5.95
2019-05-03T04:03:18.041Z,7.55
2019-05-03T04:05:47.417Z,8.35
2019-05-03T04:08:16.731Z,6.90
2019-05-03T04:10:46.496Z,7.20
2019-05-03T04:13:17.030Z,8.40
2019-05-03T04:15:48.042Z,6.83
2019-05-03T04:18:22.218Z,7.42
2019-05-03T04:20:51.611Z,6.37
2019-05-03T04:23:21.214Z,7.70
2019-05-03T04:29:26.591Z,6.72
2019-05-03T04:31:56.587Z,6.97
2019-05-03T04:34:26.417Z,6.87
2019-05-03T04:36:56.027Z,8.68
2019-05-03T04:39:25.692Z,10.35
2019-05-03T04:41:56.033Z,9.45
2019-05-03T04:44:26.076Z,11.43
2019-05-03T04:46:58.268Z,10.75
2019-05-03T04:49:26.465Z,12.37
2019-05-03T04:51:56.086Z,11.93
2019-05-03T04:54:37.459Z,11.83
2019-05-03T04:57:06.956Z,12.35
2019-05-03T04:59:36.404Z,13.38
2019-05-03T05:02:06.269Z,14.75
2019-05-03T05:04:35.941Z,15.40
2019-05-03T05:07:06.731Z,15.10
2019-05-03T05:09:36.096Z,12.28
2019-05-03T05:12:05.901Z,15.75
2019-05-03T05:14:35.536Z,20.30
2019-05-03T05:17:06.264Z,16.65
2019-05-03T05:19:41.169Z,15.10
2019-05-03T05:22:15.378Z,12.47
2019-05-03T05:24:44.962Z,13.13
2019-05-03T05:27:16.278Z,16.60
2019-05-03T05:29:45.554Z,16.25
2019-05-03T05:32:14.818Z,16.30
2019-05-03T05:34:45.926Z,15.30
2019-05-03T05:37:15.149Z,14.05
2019-05-03T05:39:44.799Z,16.37
2019-05-03T05:42:14.916Z,18.98
2019-05-03T05:44:45.415Z,17.25
2019-05-03T05:47:20.027Z,20.08
2019-05-03T05:49:50.946Z,18.07
2019-05-03T05:52:20.222Z,21.05
2019-05-03T05:54:55.320Z,22.10
2019-05-03T05:57:30.484Z,20.97
2019-05-03T06:09:36.983Z,23.85
2019-05-03T06:12:14.894Z,22.80
2019-05-03T06:14:48.945Z,22.70
2019-05-03T06:17:28.818Z,25.60
2019-05-03T06:20:00.098Z,23.50
2019-05-03T06:22:31.125Z,25.88
2019-05-03T06:25:02.499Z,23.05
2019-05-03T06:27:36.304Z,25.90
2019-05-03T06:30:10.474Z,26.77
2019-05-03T06:32:41.466Z,30.40
2019-05-03T06:35:11.175Z,25.82
2019-05-03T06:37:45.842Z,23.77
2019-05-03T06:40:15.417Z,25.17
2019-05-03T06:42:52.333Z,23.57
2019-05-03T06:45:16.063Z,24.80
2019-05-03T06:47:49.787Z,24.00
2019-05-03T06:50:19.636Z,25.08
2019-05-03T06:52:47.489Z,29.50
2019-05-03T06:55:18.288Z,29.37
2019-05-03T06:57:49.679Z,28.70
2019-05-03T07:00:34.949Z,25.12
2019-05-03T07:03:15.182Z,31.05
2019-05-03T07:08:49.047Z,29.02
2019-05-03T07:11:18.309Z,28.42
2019-05-03T07:13:55.018Z,27.93
2019-05-03T07:16:25.384Z,29.18
2019-05-03T07:18:58.123Z,31.75
2019-05-03T07:21:25.817Z,29.80
2019-05-03T07:23:55.261Z,26.65
2019-05-03T07:26:25.378Z,28.85
2019-05-03T07:28:54.953Z,26.33
2019-05-03T07:38:11.778Z,32.67
2019-05-03T07:40:41.478Z,38.08
2019-05-03T07:43:10.847Z,26.12
2019-05-03T07:45:40.353Z,26.65
2019-05-03T07:48:09.815Z,25.10
2019-05-03T07:50:39.639Z,28.35
2019-05-03T07:53:08.966Z,26.42
2019-05-03T07:55:52.221Z,28.07
2019-05-03T07:58:29.009Z,26.97
2019-05-03T08:01:06.295Z,29.23
2019-05-03T08:03:32.077Z,30.10
2019-05-03T08:06:01.329Z,32.13
2019-05-03T08:08:30.798Z,35.00
2019-05-03T08:11:00.448Z,31.60
2019-05-03T08:13:29.862Z,36.33
2019-05-03T08:15:59.153Z,38.25
2019-05-03T08:18:28.522Z,30.70
2019-05-03T08:20:57.817Z,28.50
2019-05-03T08:23:30.364Z,33.55
2019-05-03T08:25:58.938Z,31.52
2019-05-03T08:28:28.539Z,34.03
2019-05-03T08:31:15.772Z,32.55
2019-05-03T08:33:49.386Z,33.25
2019-05-03T08:36:18.753Z,31.77
2019-05-03T08:38:48.002Z,31.85
2019-05-03T08:41:24.926Z,34.60
2019-05-03T08:43:54.993Z,33.73
2019-05-03T08:46:25.368Z,34.38
2019-05-03T08:48:54.945Z,31.37
2019-05-03T08:51:25.112Z,31.42
2019-05-03T08:53:55.983Z,32.53
2019-05-03T08:56:25.461Z,30.15
2019-05-03T08:58:55.518Z,31.87
2019-05-03T09:01:25.290Z,27.77
2019-05-03T09:03:55.769Z,27.00
2019-05-03T09:06:25.426Z,28.65
2019-05-03T09:08:57.253Z,28.90
2019-05-03T09:11:33.590Z,28.55
2019-05-03T09:14:00.722Z,27.67
2019-05-03T09:16:30.434Z,24.92
2019-05-03T09:18:59.759Z,22.87
2019-05-03T09:21:29.057Z,12.15
2019-05-03T09:23:58.756Z,8.50
2019-05-03T09:26:29.519Z,7.75
2019-05-03T09:28:58.958Z,7.78
2019-05-03T09:31:29.728Z,4.65
2019-05-03T09:34:00.675Z,3.98
2019-05-03T09:36:29.998Z,3.67
2019-05-03T09:38:59.391Z,4.62
2019-05-03T09:41:29.119Z,8.78
2019-05-03T09:43:58.474Z,4.65
2019-05-03T09:46:27.754Z,4.53
2019-05-03T09:49:10.254Z,7.08
2019-05-03T09:51:28.902Z,11.15
2019-05-03T09:54:15.998Z,7.90
2019-05-03T09:56:58.737Z,11.48
2019-05-03T09:59:28.723Z,10.45
2019-05-03T10:01:58.673Z,10.88
2019-05-03T10:04:27.955Z,9.75
2019-05-03T10:06:57.223Z,11.10
2019-05-03T10:09:27.277Z,15.78
2019-05-03T10:11:56.663Z,17.07
2019-05-03T10:14:25.913Z,23.52
2019-05-03T10:17:17.009Z,21.12
2019-05-03T10:19:48.745Z,19.35
2019-05-03T10:22:21.151Z,17.57
2019-05-03T10:24:50.425Z,17.30
2019-05-03T10:27:19.713Z,22.22
2019-05-03T10:29:49.113Z,15.72
2019-05-03T10:32:32.442Z,15.25
2019-05-03T10:35:06.399Z,11.53
2019-05-03T10:37:36.027Z,13.85
2019-05-03T10:40:08.108Z,15.80
2019-05-03T10:42:38.801Z,13.75
2019-05-03T10:45:08.306Z,18.52
2019-05-03T10:47:37.804Z,16.95
2019-05-03T10:50:09.169Z,19.98
2019-05-03T10:52:44.909Z,11.40
2019-05-03T10:55:15.964Z,12.47
2019-05-03T10:57:49.553Z,9.98
2019-05-03T11:00:44.289Z,10.80
2019-05-03T11:02:56.277Z,9.40
2019-05-03T11:05:25.565Z,12.03
2019-05-03T11:07:55.615Z,12.53
2019-05-03T11:10:25.360Z,13.35
2019-05-03T11:12:56.080Z,10.25
2019-05-03T11:15:25.870Z,12.23
2019-05-03T11:17:55.582Z,13.72
2019-05-03T11:20:32.083Z,17.10
2019-05-03T11:23:02.507Z,16.52
2019-05-03T11:25:31.867Z,18.07
2019-05-03T11:28:04.760Z,13.40
2019-05-03T11:30:35.643Z,12.33
2019-05-03T11:33:15.242Z,15.18
2019-05-03T11:35:49.391Z,11.53
2019-05-03T11:38:34.800Z,10.20
2019-05-03T11:41:04.901Z,11.22
2019-05-03T11:43:35.019Z,9.68
2019-05-03T11:46:04.398Z,10.08
2019-05-03T11:48:34.889Z,7.65
2019-05-03T11:51:04.895Z,9.48
2019-05-03T11:53:35.613Z,9.55
2019-05-03T11:56:06.211Z,8.78
2019-05-03T11:58:35.478Z,6.42
2019-05-03T12:01:15.343Z,7.75
2019-05-03T12:03:41.637Z,9.40
2019-05-03T12:06:10.918Z,11.10
2019-05-03T12:08:40.562Z,11.00
2019-05-03T12:11:09.918Z,12.35
2019-05-03T12:13:39.322Z,15.90
2019-05-03T12:16:18.067Z,14.40
2019-05-03T12:18:51.970Z,14.80
2019-05-03T12:21:11.723Z,13.25
2019-05-03T12:23:42.267Z,11.03
2019-05-03T12:26:13.685Z,13.43
2019-05-03T12:28:44.817Z,15.32
2019-05-03T12:31:38.028Z,16.95
2019-05-03T12:34:06.178Z,16.93
2019-05-03T12:36:38.936Z,14.53
2019-05-03T12:39:22.867Z,18.55
2019-05-03T12:41:37.917Z,20.05
2019-05-03T12:44:07.174Z,21.02
2019-05-03T12:46:36.568Z,20.68
2019-05-03T12:49:05.958Z,24.18
2019-05-03T12:51:35.565Z,21.27
2019-05-03T12:54:05.007Z,26.85
2019-05-03T12:56:35.812Z,22.73
2019-05-03T12:59:07.016Z,23.22
2019-05-03T13:01:42.207Z,18.32
2019-05-03T13:04:15.157Z,17.80
2019-05-03T13:06:51.480Z,20.57
2019-05-03T13:11:54.775Z,23.80
2019-05-03T13:14:22.055Z,19.23
2019-05-03T13:16:52.417Z,15.23
2019-05-03T13:19:21.806Z,14.38
2019-05-03T13:21:51.998Z,15.23
2019-05-03T13:24:23.378Z,13.38
2019-05-03T13:26:52.399Z,12.75
2019-05-03T13:29:21.801Z,15.83
2019-05-03T13:31:59.199Z,14.98
2019-05-03T13:34:22.307Z,13.03
2019-05-03T13:36:51.718Z,17.42
2019-05-03T13:39:21.131Z,14.60
2019-05-03T13:41:50.491Z,13.20
2019-05-03T13:44:19.954Z,11.35
2019-05-03T13:46:50.378Z,12.63
2019-05-03T13:49:19.771Z,11.33
2019-05-03T13:51:49.049Z,8.53
2019-05-03T13:54:18.507Z,10.20
2019-05-03T13:56:47.834Z,11.35
2019-05-03T13:59:21.379Z,10.10
2019-05-03T14:01:48.082Z,10.45
2019-05-03T14:04:17.437Z,9.35
2019-05-03T14:06:47.097Z,9.73
2019-05-03T14:09:16.657Z,10.10
2019-05-03T14:11:46.119Z,10.10
2019-05-03T14:14:15.830Z,9.80
2019-05-03T14:16:45.313Z,8.45
2019-05-03T14:19:19.057Z,9.45
2019-05-03T14:21:59.612Z,10.15
2019-05-03T14:24:29.026Z,11.73
2019-05-03T14:26:59.278Z,10.68
2019-05-03T14:29:28.650Z,10.98
2019-05-03T14:31:58.075Z,13.13
2019-05-03T14:34:27.508Z,12.70
2019-05-03T14:36:56.791Z,12.30
2019-05-03T14:39:26.046Z,12.93
2019-05-03T14:41:55.624Z,12.53
2019-05-03T14:44:25.310Z,10.40
2019-05-03T14:46:58.794Z,13.13
2019-05-03T14:49:26.421Z,12.35
2019-05-03T14:51:56.699Z,12.30
2019-05-03T14:54:28.647Z,11.45
2019-05-03T14:57:08.517Z,12.05
2019-05-03T14:59:55.913Z,13.62
2019-05-03T15:02:40.907Z,11.08
2019-05-03T15:05:07.273Z,13.18
2019-05-03T15:07:36.679Z,10.80
2019-05-03T15:10:06.833Z,14.35
2019-05-03T15:12:36.170Z,14.85
2019-05-03T15:15:07.504Z,10.98
2019-05-03T15:17:37.004Z,12.60
2019-05-03T15:20:06.806Z,12.05
2019-05-03T15:22:36.272Z,12.28
2019-05-03T15:25:06.388Z,12.23
2019-05-03T15:27:35.698Z,13.45
2019-05-03T15:30:06.986Z,12.45
2019-05-03T15:32:36.709Z,13.10
2019-05-03T15:35:06.828Z,12.10
2019-05-03T15:37:37.085Z,12.35
2019-05-03T15:40:07.185Z,13.48
2019-05-03T15:42:38.173Z,12.63
2019-05-03T15:45:09.641Z,12.65
2019-05-03T15:47:43.615Z,13.72
2019-05-03T15:50:12.881Z,17.32
2019-05-03T15:52:44.381Z,14.13
2019-05-03T15:55:15.130Z,13.05
2019-05-03T15:57:44.774Z,12.60
2019-05-03T16:00:16.691Z,13.72
2019-05-03T16:02:46.021Z,16.32
2019-05-03T16:05:15.688Z,13.18
2019-05-03T16:07:45.151Z,15.05
2019-05-03T16:10:15.512Z,14.18
2019-05-03T16:12:45.038Z,13.53
2019-05-03T16:15:14.513Z,12.63
2019-05-03T16:17:44.931Z,15.95
2019-05-03T16:20:14.727Z,18.67
2019-05-03T16:22:45.007Z,18.25
2019-05-03T16:25:15.799Z,13.30
2019-05-03T16:27:47.304Z,12.47
2019-05-03T16:30:30.486Z,16.65
2019-05-03T16:33:01.462Z,14.18
2019-05-03T16:35:30.911Z,13.78
2019-05-03T16:38:00.389Z,13.35
2019-05-03T16:40:29.630Z,14.83
2019-05-03T16:42:59.272Z,16.45
2019-05-03T16:45:28.821Z,13.75
2019-05-03T16:47:58.214Z,14.87
2019-05-03T16:50:29.098Z,14.85
2019-05-03T16:52:58.385Z,14.78
2019-05-03T16:55:27.966Z,13.90
2019-05-03T16:57:57.310Z,14.25
2019-05-03T17:00:27.338Z,15.25
2019-05-03T17:02:57.026Z,14.68
2019-05-03T17:05:34.442Z,14.95
2019-05-03T17:08:17.696Z,15.78
2019-05-03T17:10:52.107Z,16.00
2019-05-03T17:13:21.469Z,15.48
2019-05-03T17:15:51.128Z,14.05
2019-05-03T17:18:20.457Z,14.30
2019-05-03T17:20:50.822Z,13.75
2019-05-03T17:23:20.155Z,16.70
2019-05-03T17:25:49.798Z,14.45
2019-05-03T17:28:19.470Z,15.93
2019-05-03T17:30:48.910Z,14.87
2019-05-03T17:33:18.291Z,15.48
2019-05-03T17:35:47.995Z,15.90
2019-05-03T17:38:17.562Z,13.70
2019-05-03T17:41:06.890Z,14.20
2019-05-03T17:43:45.236Z,16.25
2019-05-03T17:46:14.985Z,16.15
2019-05-03T17:48:45.279Z,15.98
2019-05-03T17:51:19.442Z,15.25
2019-05-03T17:53:56.163Z,14.47
2019-05-03T17:56:29.921Z,15.90
2019-05-03T17:59:00.917Z,15.65
2019-05-03T18:01:31.885Z,19.00
2019-05-03T18:04:09.734Z,17.15
2019-05-03T18:06:40.822Z,16.60
2019-05-03T18:09:20.676Z,16.95
2019-05-03T18:11:54.894Z,18.32
2019-05-03T18:14:25.096Z,18.95
2019-05-03T18:16:54.884Z,16.27
2019-05-03T18:19:24.470Z,19.05
2019-05-03T18:21:55.325Z,18.75
2019-05-03T18:24:24.874Z,19.62
2019-05-03T18:26:54.460Z,20.37
2019-05-03T18:29:25.241Z,20.62
2019-05-03T18:31:55.032Z,18.20
2019-05-03T18:34:25.032Z,22.32
2019-05-03T18:36:54.373Z,18.07
2019-05-03T18:39:25.242Z,18.85
2019-05-03T18:41:55.061Z,14.25
2019-05-03T18:44:34.748Z,16.60
2019-05-03T18:47:05.639Z,14.53
2019-05-03T18:49:35.370Z,15.35
2019-05-03T18:52:04.990Z,16.32
2019-05-03T18:54:35.042Z,17.50
2019-05-03T18:57:05.078Z,17.45
2019-05-03T18:59:34.620Z,19.27
2019-05-03T19:02:05.441Z,18.65
2019-05-03T19:04:39.005Z,20.02
2019-05-03T19:07:09.933Z,36.98
2019-05-03T19:09:40.873Z,19.80
2019-05-03T19:12:28.414Z,22.93
2019-05-03T19:14:57.896Z,19.12
2019-05-03T19:17:29.094Z,18.82
2019-05-03T19:20:00.469Z,19.42
2019-05-03T19:22:29.753Z,30.32
2019-05-03T19:24:59.077Z,23.42
2019-05-03T19:27:28.479Z,19.65
2019-05-03T19:29:57.781Z,18.92
2019-05-03T19:32:28.365Z,19.05
2019-05-03T19:34:58.194Z,19.75
2019-05-03T19:37:27.482Z,22.10
2019-05-03T19:39:57.144Z,18.52
2019-05-03T19:42:27.333Z,19.00
2019-05-03T19:44:56.765Z,21.60
2019-05-03T19:47:26.579Z,21.45
2019-05-03T19:49:56.021Z,19.27
2019-05-03T19:52:27.341Z,20.95
2019-05-03T19:54:56.594Z,20.92
2019-05-03T19:57:30.302Z,20.85
2019-05-03T19:59:59.675Z,22.60
2019-05-03T20:02:30.600Z,23.98
2019-05-03T20:05:16.527Z,20.02
2019-05-03T20:07:47.535Z,23.98
2019-05-03T20:10:18.178Z,18.95
2019-05-03T20:12:47.841Z,22.00
2019-05-03T20:15:17.389Z,21.75
2019-05-03T20:17:56.569Z,18.80
2019-05-03T20:20:17.625Z,21.60
2019-05-03T20:22:47.675Z,21.25
2019-05-03T20:25:17.275Z,21.80
2019-05-03T20:27:46.558Z,20.62
2019-05-03T20:30:16.134Z,22.35
2019-05-03T20:32:45.498Z,24.90
2019-05-03T20:35:19.203Z,21.27
2019-05-03T20:37:46.132Z,20.70
2019-05-03T20:40:15.529Z,24.45
2019-05-03T20:43:04.999Z,25.08
2019-05-03T20:45:36.190Z,20.20
2019-05-03T20:48:11.076Z,21.37
2019-05-03T20:50:40.429Z,21.77
2019-05-03T20:53:09.693Z,18.37
2019-05-03T20:55:39.050Z,21.70
2019-05-03T20:58:11.298Z,21.02
2019-05-03T21:00:39.601Z,22.73
2019-05-03T21:03:08.981Z,22.45
2019-05-03T21:05:38.345Z,23.98
2019-05-03T21:08:07.907Z,21.50
2019-05-03T21:10:37.301Z,21.82
2019-05-03T21:13:08.774Z,22.62
2019-05-03T21:15:39.678Z,22.90
2019-05-03T21:18:15.208Z,19.30
2019-05-03T21:20:46.281Z,19.10
2019-05-03T21:23:20.190Z,20.68
2019-05-03T21:26:12.069Z,21.52
2019-05-03T21:28:35.385Z,19.57
2019-05-03T21:31:05.658Z,19.45
2019-05-03T21:33:35.599Z,22.60
2019-05-03T21:36:04.985Z,19.87
2019-05-03T21:38:35.411Z,21.87
2019-05-03T21:41:05.399Z,20.45
2019-05-03T21:43:35.022Z,22.02
2019-05-03T21:46:07.515Z,23.02
2019-05-03T21:48:47.325Z,22.27
2019-05-03T21:51:16.991Z,20.65
2019-05-03T21:53:46.254Z,22.05
2019-05-03T21:56:15.538Z,22.40
2019-05-03T21:58:44.902Z,24.75
2019-05-03T22:01:15.495Z,24.00
2019-05-03T22:03:45.283Z,21.97
2019-05-03T22:06:16.874Z,22.10
2019-05-03T22:08:45.997Z,21.57
2019-05-03T22:11:15.266Z,22.42
2019-05-03T22:13:46.025Z,27.00
2019-05-03T22:16:17.352Z,25.50
2019-05-03T22:18:47.095Z,19.77
2019-05-03T22:21:30.100Z,21.05
2019-05-03T22:24:04.465Z,23.22
2019-05-03T22:26:50.841Z,23.18
2019-05-03T22:29:20.182Z,21.55
2019-05-03T22:31:49.435Z,21.93
2019-05-03T22:34:18.723Z,22.17
2019-05-03T22:36:48.088Z,21.07
2019-05-03T22:39:17.472Z,21.68
2019-05-03T22:41:46.729Z,20.92
2019-05-03T22:44:17.087Z,22.52
2019-05-03T22:46:46.629Z,23.20
2019-05-03T22:49:16.305Z,22.62
2019-05-03T22:51:45.581Z,20.70
2019-05-03T22:54:15.430Z,19.45
2019-05-03T22:56:45.897Z,19.75
2019-05-03T22:59:15.334Z,20.00
2019-05-03T23:01:45.772Z,19.25
2019-05-03T23:04:15.638Z,19.87
2019-05-03T23:06:47.102Z,20.50
2019-05-03T23:09:16.298Z,22.10
2019-05-03T23:11:45.685Z,20.52
2019-05-03T23:14:15.297Z,20.92
2019-05-03T23:16:45.056Z,20.55
2019-05-03T23:19:15.062Z,20.85
2019-05-03T23:21:48.989Z,16.70
2019-05-03T23:24:18.569Z,17.17
2019-05-03T23:26:48.129Z,14.28
2019-05-03T23:29:17.517Z,17.57
2019-05-03T23:31:46.882Z,19.62
2019-05-03T23:34:16.547Z,13.40
2019-05-03T23:36:46.363Z,15.98
2019-05-03T23:39:15.638Z,15.93
2019-05-03T23:41:44.898Z,14.45
2019-05-03T23:44:15.144Z,14.43
2019-05-03T23:46:49.858Z,13.85
2019-05-03T23:49:20.213Z,13.70
2019-05-03T23:51:55.070Z,15.58
2019-05-03T23:54:24.820Z,16.82
2019-05-03T23:56:54.755Z,19.25
2019-05-03T23:59:24.338Z,21.77
